sensor_id;sensor_type;location;lat;lon;timestamp;P1;durP1;ratioP1;P2;durP2;ratioP2
78372;SDS011;67656;52.074;4.758;2023-03-24T00:02:39;11.63;;;3.20;;
78372;SDS011;67656;52.074;4.758;2023-03-24T00:07:41;11.82;;;3.28;;
78372;SDS011;67656;52.074;4.758;2023-03-24T00:12:41;7.40;;;3.05;;
78372;SDS011;67656;52.074;4.758;2023-03-24T00:17:42;9.45;;;3.20;;
78372;SDS011;67656;52.074;4.758;2023-03-24T00:22:44;9.25;;;3.42;;
78372;SDS011;67656;52.074;4.758;2023-03-24T00:27:46;8.90;;;3.10;;
78372;SDS011;67656;52.074;4.758;2023-03-24T00:32:46;8.30;;;2.90;;
78372;SDS011;67656;52.074;4.758;2023-03-24T00:37:47;8.23;;;2.92;;
78372;SDS011;67656;52.074;4.758;2023-03-24T00:42:49;7.35;;;2.85;;
78372;SDS011;67656;52.074;4.758;2023-03-24T00:47:50;5.05;;;2.50;;
78372;SDS011;67656;52.074;4.758;2023-03-24T00:52:54;7.65;;;2.88;;
78372;SDS011;67656;52.074;4.758;2023-03-24T00:57:55;5.60;;;2.33;;
78372;SDS011;67656;52.074;4.758;2023-03-24T01:02:56;9.05;;;3.03;;
78372;SDS011;67656;52.074;4.758;2023-03-24T01:07:58;5.50;;;2.80;;
78372;SDS011;67656;52.074;4.758;2023-03-24T01:13:00;8.20;;;3.00;;
78372;SDS011;67656;52.074;4.758;2023-03-24T01:18:01;9.23;;;3.08;;
78372;SDS011;67656;52.074;4.758;2023-03-24T01:23:02;8.15;;;2.92;;
78372;SDS011;67656;52.074;4.758;2023-03-24T01:28:03;8.20;;;3.08;;
78372;SDS011;67656;52.074;4.758;2023-03-24T01:33:04;6.05;;;2.70;;
78372;SDS011;67656;52.074;4.758;2023-03-24T01:38:09;6.95;;;2.80;;
78372;SDS011;67656;52.074;4.758;2023-03-24T01:43:18;7.90;;;3.10;;
78372;SDS011;67656;52.074;4.758;2023-03-24T01:53:38;4.10;;;2.42;;
78372;SDS011;67656;52.074;4.758;2023-03-24T01:58:45;5.07;;;2.72;;
78372;SDS011;67656;52.074;4.758;2023-03-24T02:03:54;4.00;;;2.05;;
78372;SDS011;67656;52.074;4.758;2023-03-24T02:08:58;4.10;;;1.27;;
78372;SDS011;67656;52.074;4.758;2023-03-24T02:14:01;3.57;;;0.90;;
78372;SDS011;67656;52.074;4.758;2023-03-24T02:51:16;9.18;;;0.90;;
78372;SDS011;67656;52.074;4.758;2023-03-24T02:56:31;5.60;;;1.00;;
78372;SDS011;67656;52.074;4.758;2023-03-24T03:02:04;7.15;;;1.27;;
78372;SDS011;67656;52.074;4.758;2023-03-24T03:07:24;8.38;;;1.63;;
78372;SDS011;67656;52.074;4.758;2023-03-24T03:12:30;8.32;;;1.25;;
78372;SDS011;67656;52.074;4.758;2023-03-24T03:17:40;8.50;;;1.50;;
78372;SDS011;67656;52.074;4.758;2023-03-24T03:22:45;10.55;;;1.73;;
78372;SDS011;67656;52.074;4.758;2023-03-24T03:27:50;10.52;;;1.30;;
78372;SDS011;67656;52.074;4.758;2023-03-24T03:32:55;7.82;;;1.50;;
78372;SDS011;67656;52.074;4.758;2023-03-24T03:38:08;9.88;;;1.10;;
78372;SDS011;67656;52.074;4.758;2023-03-24T03:43:11;7.18;;;1.00;;
78372;SDS011;67656;52.074;4.758;2023-03-24T03:48:11;6.68;;;0.90;;
78372;SDS011;67656;52.074;4.758;2023-03-24T03:53:13;7.47;;;0.88;;
78372;SDS011;67656;52.074;4.758;2023-03-24T03:58:15;7.35;;;1.25;;
78372;SDS011;67656;52.074;4.758;2023-03-24T04:03:49;7.63;;;1.35;;
78372;SDS011;67656;52.074;4.758;2023-03-24T04:14:45;9.85;;;1.92;;
78372;SDS011;67656;52.074;4.758;2023-03-24T04:20:50;10.93;;;1.77;;
78372;SDS011;67656;52.074;4.758;2023-03-24T04:31:19;14.88;;;1.75;;
78372;SDS011;67656;52.074;4.758;2023-03-24T04:36:28;13.43;;;1.92;;
78372;SDS011;67656;52.074;4.758;2023-03-24T04:41:58;12.40;;;1.52;;
78372;SDS011;67656;52.074;4.758;2023-03-24T04:47:04;14.82;;;2.35;;
78372;SDS011;67656;52.074;4.758;2023-03-24T04:52:08;12.57;;;1.90;;
78372;SDS011;67656;52.074;4.758;2023-03-24T04:57:09;11.43;;;1.83;;
78372;SDS011;67656;52.074;4.758;2023-03-24T05:02:15;15.32;;;2.88;;
78372;SDS011;67656;52.074;4.758;2023-03-24T05:07:26;16.23;;;2.47;;
78372;SDS011;67656;52.074;4.758;2023-03-24T05:12:31;18.60;;;2.45;;
78372;SDS011;67656;52.074;4.758;2023-03-24T05:18:03;16.75;;;2.78;;
78372;SDS011;67656;52.074;4.758;2023-03-24T05:23:04;14.68;;;2.60;;
78372;SDS011;67656;52.074;4.758;2023-03-24T05:28:05;10.65;;;2.75;;
78372;SDS011;67656;52.074;4.758;2023-03-24T05:33:06;15.80;;;2.35;;
78372;SDS011;67656;52.074;4.758;2023-03-24T05:38:09;13.18;;;2.08;;
78372;SDS011;67656;52.074;4.758;2023-03-24T05:43:12;11.60;;;1.73;;
78372;SDS011;67656;52.074;4.758;2023-03-24T05:48:17;12.73;;;2.55;;
78372;SDS011;67656;52.074;4.758;2023-03-24T05:53:36;13.15;;;1.80;;
78372;SDS011;67656;52.074;4.758;2023-03-24T05:59:05;14.43;;;2.17;;
78372;SDS011;67656;52.074;4.758;2023-03-24T06:04:24;16.67;;;2.33;;
78372;SDS011;67656;52.074;4.758;2023-03-24T06:09:30;11.18;;;1.73;;
78372;SDS011;67656;52.074;4.758;2023-03-24T06:14:31;11.32;;;1.80;;
78372;SDS011;67656;52.074;4.758;2023-03-24T06:19:42;16.55;;;2.03;;
78372;SDS011;67656;52.074;4.758;2023-03-24T06:24:52;8.88;;;1.60;;
78372;SDS011;67656;52.074;4.758;2023-03-24T06:29:52;8.73;;;1.80;;
78372;SDS011;67656;52.074;4.758;2023-03-24T06:34:53;13.07;;;1.60;;
78372;SDS011;67656;52.074;4.758;2023-03-24T06:40:05;8.02;;;1.73;;
78372;SDS011;67656;52.074;4.758;2023-03-24T06:45:08;16.33;;;2.35;;
78372;SDS011;67656;52.074;4.758;2023-03-24T06:50:12;10.88;;;1.40;;
78372;SDS011;67656;52.074;4.758;2023-03-24T06:55:12;13.55;;;1.83;;
78372;SDS011;67656;52.074;4.758;2023-03-24T07:00:13;16.33;;;1.80;;
78372;SDS011;67656;52.074;4.758;2023-03-24T07:05:27;14.20;;;2.05;;
78372;SDS011;67656;52.074;4.758;2023-03-24T07:10:29;12.15;;;1.60;;
78372;SDS011;67656;52.074;4.758;2023-03-24T07:15:30;12.15;;;1.65;;
78372;SDS011;67656;52.074;4.758;2023-03-24T07:20:31;14.23;;;1.75;;
78372;SDS011;67656;52.074;4.758;2023-03-24T07:25:45;10.35;;;1.73;;
78372;SDS011;67656;52.074;4.758;2023-03-24T07:31:04;7.15;;;1.50;;
78372;SDS011;67656;52.074;4.758;2023-03-24T07:36:06;7.00;;;1.58;;
78372;SDS011;67656;52.074;4.758;2023-03-24T07:41:09;12.57;;;1.73;;
78372;SDS011;67656;52.074;4.758;2023-03-24T07:46:14;10.13;;;1.70;;
78372;SDS011;67656;52.074;4.758;2023-03-24T07:51:14;12.30;;;2.00;;
78372;SDS011;67656;52.074;4.758;2023-03-24T07:56:23;7.95;;;1.55;;
78372;SDS011;67656;52.074;4.758;2023-03-24T08:01:28;4.95;;;1.05;;
78372;SDS011;67656;52.074;4.758;2023-03-24T08:06:31;11.10;;;1.80;;
78372;SDS011;67656;52.074;4.758;2023-03-24T08:11:33;8.57;;;1.63;;
78372;SDS011;67656;52.074;4.758;2023-03-24T08:16:33;6.93;;;1.90;;
78372;SDS011;67656;52.074;4.758;2023-03-24T08:21:33;7.97;;;1.40;;
78372;SDS011;67656;52.074;4.758;2023-03-24T08:26:34;5.38;;;1.40;;
78372;SDS011;67656;52.074;4.758;2023-03-24T08:31:35;6.95;;;1.30;;
78372;SDS011;67656;52.074;4.758;2023-03-24T08:36:36;8.48;;;1.60;;
78372;SDS011;67656;52.074;4.758;2023-03-24T08:41:39;10.93;;;1.67;;
78372;SDS011;67656;52.074;4.758;2023-03-24T08:46:39;12.50;;;1.73;;
78372;SDS011;67656;52.074;4.758;2023-03-24T08:51:40;9.65;;;1.85;;
78372;SDS011;67656;52.074;4.758;2023-03-24T08:56:42;9.32;;;1.50;;
78372;SDS011;67656;52.074;4.758;2023-03-24T09:01:43;9.25;;;1.55;;
78372;SDS011;67656;52.074;4.758;2023-03-24T09:06:44;8.15;;;1.73;;
78372;SDS011;67656;52.074;4.758;2023-03-24T09:11:44;9.32;;;1.60;;
78372;SDS011;67656;52.074;4.758;2023-03-24T09:16:44;10.52;;;1.60;;
78372;SDS011;67656;52.074;4.758;2023-03-24T09:21:45;6.68;;;1.42;;
78372;SDS011;67656;52.074;4.758;2023-03-24T09:26:48;7.43;;;1.88;;
78372;SDS011;67656;52.074;4.758;2023-03-24T09:31:49;7.38;;;1.58;;
78372;SDS011;67656;52.074;4.758;2023-03-24T09:36:52;9.02;;;1.67;;
78372;SDS011;67656;52.074;4.758;2023-03-24T09:41:53;7.45;;;1.55;;
78372;SDS011;67656;52.074;4.758;2023-03-24T09:46:59;9.00;;;1.50;;
78372;SDS011;67656;52.074;4.758;2023-03-24T09:52:04;8.15;;;1.50;;
78372;SDS011;67656;52.074;4.758;2023-03-24T09:57:10;7.80;;;1.10;;
78372;SDS011;67656;52.074;4.758;2023-03-24T10:02:18;8.88;;;1.67;;
78372;SDS011;67656;52.074;4.758;2023-03-24T10:07:31;11.15;;;1.20;;
78372;SDS011;67656;52.074;4.758;2023-03-24T10:12:39;7.97;;;1.20;;
78372;SDS011;67656;52.074;4.758;2023-03-24T10:28:17;9.02;;;1.25;;
78372;SDS011;67656;52.074;4.758;2023-03-24T10:33:20;7.25;;;1.20;;
78372;SDS011;67656;52.074;4.758;2023-03-24T10:38:25;7.32;;;1.40;;
78372;SDS011;67656;52.074;4.758;2023-03-24T10:43:25;6.00;;;1.38;;
78372;SDS011;67656;52.074;4.758;2023-03-24T10:53:42;8.50;;;1.50;;
78372;SDS011;67656;52.074;4.758;2023-03-24T10:58:54;7.97;;;1.20;;
78372;SDS011;67656;52.074;4.758;2023-03-24T11:03:57;6.22;;;1.40;;
78372;SDS011;67656;52.074;4.758;2023-03-24T11:09:18;9.30;;;1.60;;
78372;SDS011;67656;52.074;4.758;2023-03-24T11:14:27;5.03;;;1.30;;
78372;SDS011;67656;52.074;4.758;2023-03-24T11:19:27;9.57;;;1.55;;
78372;SDS011;67656;52.074;4.758;2023-03-24T11:24:28;8.88;;;1.52;;
78372;SDS011;67656;52.074;4.758;2023-03-24T11:29:30;11.68;;;1.30;;
78372;SDS011;67656;52.074;4.758;2023-03-24T11:34:43;5.10;;;0.90;;
78372;SDS011;67656;52.074;4.758;2023-03-24T11:40:04;7.07;;;1.05;;
78372;SDS011;67656;52.074;4.758;2023-03-24T11:45:22;6.10;;;0.80;;
78372;SDS011;67656;52.074;4.758;2023-03-24T11:50:27;7.18;;;0.98;;
78372;SDS011;67656;52.074;4.758;2023-03-24T11:55:35;6.45;;;1.10;;
78372;SDS011;67656;52.074;4.758;2023-03-24T12:00:51;6.32;;;1.15;;
78372;SDS011;67656;52.074;4.758;2023-03-24T12:06:00;5.00;;;0.73;;
78372;SDS011;67656;52.074;4.758;2023-03-24T12:11:16;5.68;;;1.17;;
78372;SDS011;67656;52.074;4.758;2023-03-24T12:16:53;8.98;;;1.13;;
78372;SDS011;67656;52.074;4.758;2023-03-24T12:33:12;8.43;;;1.08;;
78372;SDS011;67656;52.074;4.758;2023-03-24T12:38:50;6.50;;;1.20;;
78372;SDS011;67656;52.074;4.758;2023-03-24T12:44:01;7.53;;;0.90;;
78372;SDS011;67656;52.074;4.758;2023-03-24T12:49:11;5.05;;;0.75;;
78372;SDS011;67656;52.074;4.758;2023-03-24T12:54:32;6.78;;;1.10;;
78372;SDS011;67656;52.074;4.758;2023-03-24T12:59:59;6.15;;;0.90;;
78372;SDS011;67656;52.074;4.758;2023-03-24T13:05:06;6.68;;;1.00;;
78372;SDS011;67656;52.074;4.758;2023-03-24T13:10:14;5.97;;;1.08;;
78372;SDS011;67656;52.074;4.758;2023-03-24T13:15:25;11.65;;;1.17;;
78372;SDS011;67656;52.074;4.758;2023-03-24T13:25:53;9.25;;;1.20;;
78372;SDS011;67656;52.074;4.758;2023-03-24T13:31:07;5.53;;;1.02;;
78372;SDS011;67656;52.074;4.758;2023-03-24T13:36:22;6.72;;;1.10;;
78372;SDS011;67656;52.074;4.758;2023-03-24T13:41:31;5.45;;;0.60;;
78372;SDS011;67656;52.074;4.758;2023-03-24T13:46:37;2.10;;;0.40;;
78372;SDS011;67656;52.074;4.758;2023-03-24T13:51:42;4.45;;;0.70;;
78372;SDS011;67656;52.074;4.758;2023-03-24T13:56:51;3.65;;;0.70;;
78372;SDS011;67656;52.074;4.758;2023-03-24T14:02:21;5.68;;;0.80;;
78372;SDS011;67656;52.074;4.758;2023-03-24T14:28:36;6.65;;;1.10;;
78372;SDS011;67656;52.074;4.758;2023-03-24T14:33:55;7.53;;;0.70;;
78372;SDS011;67656;52.074;4.758;2023-03-24T14:39:34;8.18;;;0.80;;
78372;SDS011;67656;52.074;4.758;2023-03-24T14:50:09;3.42;;;0.82;;
78372;SDS011;67656;52.074;4.758;2023-03-24T14:55:16;4.43;;;0.85;;
78372;SDS011;67656;52.074;4.758;2023-03-24T15:00:39;8.48;;;0.93;;
78372;SDS011;67656;52.074;4.758;2023-03-24T15:05:46;10.82;;;0.95;;
78372;SDS011;67656;52.074;4.758;2023-03-24T15:11:05;8.18;;;1.05;;
78372;SDS011;67656;52.074;4.758;2023-03-24T15:26:23;4.95;;;0.88;;
78372;SDS011;67656;52.074;4.758;2023-03-24T15:31:25;4.95;;;0.80;;
78372;SDS011;67656;52.074;4.758;2023-03-24T15:36:26;6.70;;;1.15;;
78372;SDS011;67656;52.074;4.758;2023-03-24T15:41:33;6.00;;;1.02;;
78372;SDS011;67656;52.074;4.758;2023-03-24T15:46:34;9.70;;;1.23;;
78372;SDS011;67656;52.074;4.758;2023-03-24T15:51:47;8.10;;;0.80;;
78372;SDS011;67656;52.074;4.758;2023-03-24T15:57:00;7.80;;;1.10;;
78372;SDS011;67656;52.074;4.758;2023-03-24T16:02:10;4.45;;;0.95;;
78372;SDS011;67656;52.074;4.758;2023-03-24T16:07:22;7.22;;;1.10;;
78372;SDS011;67656;52.074;4.758;2023-03-24T16:12:25;6.80;;;1.00;;
78372;SDS011;67656;52.074;4.758;2023-03-24T16:17:26;5.63;;;1.15;;
78372;SDS011;67656;52.074;4.758;2023-03-24T16:22:26;7.85;;;0.90;;
78372;SDS011;67656;52.074;4.758;2023-03-24T16:27:27;8.10;;;0.80;;
78372;SDS011;67656;52.074;4.758;2023-03-24T16:32:27;5.00;;;0.88;;
78372;SDS011;67656;52.074;4.758;2023-03-24T16:37:27;11.52;;;1.10;;
78372;SDS011;67656;52.074;4.758;2023-03-24T16:42:28;10.73;;;1.50;;
78372;SDS011;67656;52.074;4.758;2023-03-24T16:47:28;7.38;;;0.80;;
78372;SDS011;67656;52.074;4.758;2023-03-24T16:52:29;7.88;;;1.10;;
78372;SDS011;67656;52.074;4.758;2023-03-24T16:57:29;3.90;;;0.75;;
78372;SDS011;67656;52.074;4.758;2023-03-24T17:02:30;7.88;;;0.90;;
78372;SDS011;67656;52.074;4.758;2023-03-24T17:07:30;8.27;;;0.93;;
78372;SDS011;67656;52.074;4.758;2023-03-24T17:12:30;7.22;;;1.02;;
78372;SDS011;67656;52.074;4.758;2023-03-24T17:17:31;4.38;;;0.90;;
78372;SDS011;67656;52.074;4.758;2023-03-24T17:22:32;5.85;;;1.13;;
78372;SDS011;67656;52.074;4.758;2023-03-24T17:27:33;4.05;;;1.00;;
78372;SDS011;67656;52.074;4.758;2023-03-24T17:32:33;7.10;;;0.98;;
78372;SDS011;67656;52.074;4.758;2023-03-24T17:37:34;7.40;;;0.93;;
78372;SDS011;67656;52.074;4.758;2023-03-24T17:42:35;8.48;;;0.82;;
78372;SDS011;67656;52.074;4.758;2023-03-24T17:47:39;4.45;;;0.85;;
78372;SDS011;67656;52.074;4.758;2023-03-24T17:52:44;5.85;;;0.88;;
78372;SDS011;67656;52.074;4.758;2023-03-24T17:57:46;7.10;;;0.80;;
78372;SDS011;67656;52.074;4.758;2023-03-24T18:02:46;5.82;;;1.10;;
78372;SDS011;67656;52.074;4.758;2023-03-24T18:07:46;6.07;;;1.05;;
78372;SDS011;67656;52.074;4.758;2023-03-24T18:12:47;6.68;;;0.90;;
78372;SDS011;67656;52.074;4.758;2023-03-24T18:17:47;5.40;;;0.90;;
78372;SDS011;67656;52.074;4.758;2023-03-24T18:22:47;7.32;;;0.88;;
78372;SDS011;67656;52.074;4.758;2023-03-24T18:27:48;4.68;;;0.77;;
78372;SDS011;67656;52.074;4.758;2023-03-24T18:32:48;4.90;;;0.63;;
78372;SDS011;67656;52.074;4.758;2023-03-24T18:37:49;6.97;;;1.20;;
78372;SDS011;67656;52.074;4.758;2023-03-24T18:42:49;6.22;;;1.45;;
78372;SDS011;67656;52.074;4.758;2023-03-24T18:47:49;8.02;;;1.02;;
78372;SDS011;67656;52.074;4.758;2023-03-24T18:52:50;8.52;;;1.50;;
78372;SDS011;67656;52.074;4.758;2023-03-24T18:57:50;4.35;;;1.27;;
78372;SDS011;67656;52.074;4.758;2023-03-24T19:02:51;7.18;;;1.98;;
78372;SDS011;67656;52.074;4.758;2023-03-24T19:07:51;5.25;;;1.33;;
78372;SDS011;67656;52.074;4.758;2023-03-24T19:12:53;10.25;;;1.17;;
78372;SDS011;67656;52.074;4.758;2023-03-24T19:17:57;4.97;;;1.00;;
78372;SDS011;67656;52.074;4.758;2023-03-24T19:22:58;6.15;;;1.20;;
78372;SDS011;67656;52.074;4.758;2023-03-24T19:27:58;9.07;;;1.30;;
78372;SDS011;67656;52.074;4.758;2023-03-24T19:32:59;5.90;;;0.82;;
78372;SDS011;67656;52.074;4.758;2023-03-24T19:37:59;5.13;;;1.08;;
78372;SDS011;67656;52.074;4.758;2023-03-24T19:42:59;6.60;;;1.13;;
78372;SDS011;67656;52.074;4.758;2023-03-24T19:48:00;9.45;;;1.23;;
78372;SDS011;67656;52.074;4.758;2023-03-24T19:53:00;6.00;;;0.93;;
78372;SDS011;67656;52.074;4.758;2023-03-24T19:58:02;5.22;;;1.00;;
78372;SDS011;67656;52.074;4.758;2023-03-24T20:03:04;7.03;;;0.90;;
78372;SDS011;67656;52.074;4.758;2023-03-24T20:08:05;5.40;;;1.13;;
78372;SDS011;67656;52.074;4.758;2023-03-24T20:13:05;5.13;;;1.67;;
78372;SDS011;67656;52.074;4.758;2023-03-24T20:18:07;6.15;;;0.95;;
78372;SDS011;67656;52.074;4.758;2023-03-24T20:23:07;5.90;;;1.10;;
78372;SDS011;67656;52.074;4.758;2023-03-24T20:28:07;7.32;;;0.88;;
78372;SDS011;67656;52.074;4.758;2023-03-24T20:33:08;3.08;;;0.82;;
78372;SDS011;67656;52.074;4.758;2023-03-24T20:38:08;4.55;;;0.90;;
78372;SDS011;67656;52.074;4.758;2023-03-24T20:43:09;6.35;;;0.93;;
78372;SDS011;67656;52.074;4.758;2023-03-24T20:48:09;5.07;;;1.00;;
78372;SDS011;67656;52.074;4.758;2023-03-24T20:53:09;4.68;;;1.25;;
78372;SDS011;67656;52.074;4.758;2023-03-24T20:58:10;7.57;;;0.98;;
78372;SDS011;67656;52.074;4.758;2023-03-24T21:03:11;6.57;;;1.10;;
78372;SDS011;67656;52.074;4.758;2023-03-24T21:08:11;5.90;;;1.13;;
78372;SDS011;67656;52.074;4.758;2023-03-24T21:13:14;8.95;;;1.23;;
78372;SDS011;67656;52.074;4.758;2023-03-24T21:18:14;8.25;;;1.25;;
78372;SDS011;67656;52.074;4.758;2023-03-24T21:23:14;5.63;;;1.10;;
78372;SDS011;67656;52.074;4.758;2023-03-24T21:28:15;5.78;;;0.68;;
78372;SDS011;67656;52.074;4.758;2023-03-24T21:33:15;7.35;;;1.08;;
78372;SDS011;67656;52.074;4.758;2023-03-24T21:38:16;6.95;;;0.80;;
78372;SDS011;67656;52.074;4.758;2023-03-24T21:43:16;7.47;;;1.23;;
78372;SDS011;67656;52.074;4.758;2023-03-24T21:48:17;6.20;;;1.10;;
78372;SDS011;67656;52.074;4.758;2023-03-24T21:53:17;7.18;;;1.23;;
78372;SDS011;67656;52.074;4.758;2023-03-24T21:58:19;5.45;;;0.80;;
78372;SDS011;67656;52.074;4.758;2023-03-24T22:03:19;7.43;;;0.90;;
78372;SDS011;67656;52.074;4.758;2023-03-24T22:08:20;5.38;;;0.95;;
78372;SDS011;67656;52.074;4.758;2023-03-24T22:13:21;3.72;;;0.57;;
78372;SDS011;67656;52.074;4.758;2023-03-24T22:18:22;6.28;;;0.80;;
78372;SDS011;67656;52.074;4.758;2023-03-24T22:23:23;5.20;;;1.00;;
78372;SDS011;67656;52.074;4.758;2023-03-24T22:28:23;6.75;;;0.90;;
78372;SDS011;67656;52.074;4.758;2023-03-24T22:33:24;7.32;;;0.93;;
78372;SDS011;67656;52.074;4.758;2023-03-24T22:38:24;5.10;;;0.75;;
78372;SDS011;67656;52.074;4.758;2023-03-24T22:43:26;8.55;;;1.33;;
78372;SDS011;67656;52.074;4.758;2023-03-24T22:48:27;7.80;;;1.10;;
78372;SDS011;67656;52.074;4.758;2023-03-24T22:53:28;8.30;;;0.80;;
78372;SDS011;67656;52.074;4.758;2023-03-24T22:58:28;8.10;;;1.23;;
78372;SDS011;67656;52.074;4.758;2023-03-24T23:03:29;9.20;;;1.36;;
78372;SDS011;67656;52.074;4.758;2023-03-24T23:08:30;5.43;;;1.00;;
78372;SDS011;67656;52.074;4.758;2023-03-24T23:13:31;7.97;;;1.10;;
78372;SDS011;67656;52.074;4.758;2023-03-24T23:18:32;13.48;;;1.55;;
78372;SDS011;67656;52.074;4.758;2023-03-24T23:23:33;8.30;;;1.00;;
78372;SDS011;67656;52.074;4.758;2023-03-24T23:28:34;9.52;;;1.40;;
78372;SDS011;67656;52.074;4.758;2023-03-24T23:33:34;10.75;;;1.35;;
78372;SDS011;67656;52.074;4.758;2023-03-24T23:38:35;6.80;;;1.45;;
78372;SDS011;67656;52.074;4.758;2023-03-24T23:43:36;10.73;;;1.70;;
78372;SDS011;67656;52.074;4.758;2023-03-24T23:48:36;9.18;;;1.42;;
78372;SDS011;67656;52.074;4.758;2023-03-24T23:53:37;9.93;;;1.58;;
78372;SDS011;67656;52.074;4.758;2023-03-24T23:58:38;8.15;;;0.95;;
